DABC/CZL METAR and TAF weather

Enter ICAO airport designator
Station Type Date Time Source
DABC METAR 2019/12/06 04:00 UTC NOAA

DABC 060400Z 33003KT CAVOK 05/03 Q1024


Station Type Date Time Source
DABC Decoded METAR 2019/12/06 04:00 UTC NOAA

Constantine, Algeria (DABC) 36-17N 006-37E 694M
Dec 05, 2019 - 11:00 PM EST / 2019.12.06 0400 UTC
Wind: from the NNW (330 degrees) at 3 MPH (3 KT):0
Visibility: greater than 7 mile(s):0
Temperature: 41 F (5 C)
Dew Point: 37 F (3 C)
Relative Humidity: 86%
Pressure (altimeter): 30.24 in. Hg (1024 hPa)
ob: DABC 060400Z 33003KT CAVOK 05/03 Q1024
cycle: 4

Station Type Date Time Source
DABC TAF 2019/12/05 18:57 UTC NOAA

TAF COR TAF COR DABC 051853Z 0518/0618 23008KT 9999 FEW033 SCT200 PROB40 0603/0608 3000 BR BKN010

Example: see airport list